Adrian, OR

12:41 AM MDT on August 29, 2015 (GMT -0600)
Homedale 3SW | | Change Station
CLOSE
Current Station
Personal Weather Station
Location: Homedale, 3 SW, ID
Elevation: 2365 ft
Nearby Weather Stations

Elev 2365 ft 43.57 °N, 116.97 °W | Updated 7 seconds ago

Clear
Clear
70.2 °F
Feels Like 76 °F
N
0.0
Wind Variable Wind from NE
Gusts 0.0 mph

Today
High -- | Low -- °F
--% Chance of Precip.
Yesterday
High -- | Low -- °F
Precip. -- in
7:08 AM 8:29 PM
Full, 100% visible
Pressure 29.76 in
Visibility 10.0 miles
Clouds Clear
Heat Index 76 °F
Dew Point 55 °F
Humidity 58%
Rainfall 0.00 in
Snow Depth Not available.
UV 0 out of 12
Pollen 8.70 out of 12
Air Quality Not available.
Flu Activity Not available.
METAR KONO 290553Z AUTO 26005KT 10SM CLR 22/09 A2981 RMK AO2 SLP077 T02170089 10306 20206 58016
Pressure 29.76 in
Visibility 10.0 miles
Clouds Clear
Heat Index 76 °F
Dew Point 55 °F
Humidity 58%
Rainfall 0.00 in
Snow Depth Not available.
UV 0 out of 12
Pollen 8.70 out of 12
Air Quality Not available.
Flu Activity Not available.
METAR KONO 290553Z AUTO 26005KT 10SM CLR 22/09 A2981 RMK AO2 SLP077 T02170089 10306 20206 58016

10-Day Weather Forecast

×

Almanac

Astronomy

Aug. 29, 2015 Rise Set
Actual Time
Civil Twilight
Nautical Twilight
Astronomical Twilight
Moon
Length of Visible Light
Length of Day
Tomorrow will be .
, % of the Moon is Illuminated

Today's Extremes

State Highs State Lows

Community

WunderPhotos

Upload Photos

1,850,632 photos uploaded!

WunderBlogs® & News

Nearby

Air Quality

  Air Quality AQ Index Pollutant
Not available.

Snow Depth

Station Depth Elevation

Earthquake Activity

City Distance Mag. Time & Date
Minimum magnitude displayed is 2.5.

Coastal Water Temperatures

Place Temperature

Stations

Nearby Weather Stations

Station Location Temp. Windchill Dew Point Humidity Wind Precip. Elev Updated Type